createdAt,value
2022-10-09T00:00:26.917Z,8.07
2022-10-09T00:02:28.397Z,8.06
2022-10-09T00:04:29.747Z,8.12
2022-10-09T00:06:33.735Z,8.12
2022-10-09T00:08:36.093Z,7.90
2022-10-09T00:10:41.169Z,7.90
2022-10-09T00:12:42.680Z,7.93
2022-10-09T00:14:44.037Z,7.88
2022-10-09T00:16:46.915Z,7.89
2022-10-09T00:18:49.442Z,7.94
2022-10-09T00:20:50.888Z,7.83
2022-10-09T00:22:53.982Z,7.82
2022-10-09T00:24:55.549Z,7.85
2022-10-09T00:26:56.844Z,7.87
2022-10-09T00:28:58.543Z,7.93
2022-10-09T00:31:03.614Z,7.95
2022-10-09T00:33:06.407Z,7.96
2022-10-09T00:35:08.315Z,7.92
2022-10-09T00:37:09.979Z,7.94
2022-10-09T00:39:11.578Z,7.98
2022-10-09T00:41:15.461Z,7.99
2022-10-09T00:43:18.515Z,7.95
2022-10-09T00:45:21.057Z,7.90
2022-10-09T00:47:27.349Z,7.93
2022-10-09T00:49:33.087Z,7.95
2022-10-09T00:51:35.029Z,7.91
2022-10-09T00:53:36.546Z,7.95
2022-10-09T00:55:38.813Z,7.93
2022-10-09T00:57:42.714Z,7.95
2022-10-09T00:59:44.669Z,7.92
2022-10-09T01:01:46.695Z,7.89
2022-10-09T01:03:48.201Z,7.95
2022-10-09T01:06:00.513Z,7.93
2022-10-09T01:08:07.862Z,7.83
2022-10-09T01:10:25.004Z,7.86
2022-10-09T01:12:40.580Z,7.84
2022-10-09T01:14:48.109Z,7.84
2022-10-09T01:16:56.043Z,7.79
2022-10-09T01:19:05.249Z,7.85
2022-10-09T01:21:14.036Z,7.79
2022-10-09T01:23:47.606Z,7.84
2022-10-09T01:26:04.604Z,7.81
2022-10-09T01:28:08.707Z,7.78
2022-10-09T01:30:12.432Z,7.80
2022-10-09T01:32:18.247Z,7.81
2022-10-09T01:34:20.912Z,7.79
2022-10-09T01:36:23.205Z,7.67
2022-10-09T01:38:24.958Z,7.71
2022-10-09T01:40:28.838Z,7.71
2022-10-09T01:42:31.968Z,7.75
2022-10-09T01:44:34.804Z,7.77
2022-10-09T01:46:36.336Z,7.74
2022-10-09T01:48:37.879Z,7.72
2022-10-09T01:50:40.533Z,7.74
2022-10-09T01:52:47.404Z,7.73
2022-10-09T01:55:00.990Z,7.74
2022-10-09T01:57:05.945Z,7.76
2022-10-09T01:59:16.238Z,7.73
2022-10-09T02:01:22.995Z,7.70
2022-10-09T02:03:27.167Z,7.67
2022-10-09T02:05:30.789Z,7.66
2022-10-09T02:07:33.940Z,7.67
2022-10-09T02:09:37.695Z,7.71
2022-10-09T02:11:41.742Z,7.60
2022-10-09T02:13:44.181Z,7.62
2022-10-09T02:15:49.497Z,7.56
2022-10-09T02:17:54.384Z,7.47
2022-10-09T02:20:01.380Z,7.44
2022-10-09T02:22:09.974Z,7.40
2022-10-09T02:24:20.472Z,7.47
2022-10-09T02:26:22.436Z,7.49
2022-10-09T02:28:24.102Z,7.47
2022-10-09T02:30:33.832Z,7.46
2022-10-09T02:32:35.668Z,7.35
2022-10-09T02:34:38.646Z,7.40
2022-10-09T02:36:40.133Z,7.35
2022-10-09T02:38:41.419Z,7.33
2022-10-09T02:40:42.860Z,7.37
2022-10-09T02:42:44.344Z,7.35
2022-10-09T02:44:45.647Z,7.30
2022-10-09T02:46:47.228Z,7.24
2022-10-09T02:48:48.790Z,7.22
2022-10-09T02:50:51.446Z,7.21
2022-10-09T02:52:52.879Z,7.12
2022-10-09T02:54:54.567Z,7.05
2022-10-09T02:56:56.029Z,7.20
2022-10-09T02:58:57.626Z,7.16
2022-10-09T03:00:59.276Z,7.13
2022-10-09T03:03:00.737Z,7.16
2022-10-09T03:05:02.069Z,7.27
2022-10-09T03:07:04.889Z,7.10
2022-10-09T03:09:06.398Z,7.11
2022-10-09T03:11:07.882Z,7.11
2022-10-09T03:13:09.388Z,7.22
2022-10-09T03:15:10.939Z,7.14
2022-10-09T03:17:12.391Z,7.25
2022-10-09T03:19:19.375Z,7.24
2022-10-09T03:21:22.724Z,7.26
2022-10-09T03:23:25.692Z,7.18
2022-10-09T03:25:27.207Z,7.20
2022-10-09T03:27:28.484Z,7.11
2022-10-09T03:29:29.984Z,7.16
2022-10-09T03:31:51.070Z,7.04
2022-10-09T03:33:52.708Z,7.02
2022-10-09T03:35:54.155Z,7.05
2022-10-09T03:37:55.649Z,7.11
2022-10-09T03:39:58.296Z,7.01
2022-10-09T03:41:59.760Z,7.04
2022-10-09T03:44:02.974Z,7.14
2022-10-09T03:46:05.494Z,7.11
2022-10-09T03:48:07.425Z,7.01
2022-10-09T03:50:09.721Z,7.06
2022-10-09T03:52:11.168Z,7.06
2022-10-09T03:54:12.613Z,7.03
2022-10-09T03:56:15.808Z,7.09
2022-10-09T03:58:17.314Z,7.05
2022-10-09T04:00:18.696Z,7.10
2022-10-09T04:02:20.449Z,7.14
2022-10-09T04:04:21.938Z,7.11
2022-10-09T04:06:23.481Z,7.04
2022-10-09T04:08:24.818Z,7.03
2022-10-09T04:10:26.351Z,7.00
2022-10-09T04:12:29.019Z,6.98
2022-10-09T04:14:30.476Z,6.94
2022-10-09T04:16:32.038Z,6.92
2022-10-09T04:18:33.534Z,6.91
2022-10-09T04:20:34.859Z,6.95
2022-10-09T04:22:36.310Z,6.95
2022-10-09T04:24:37.612Z,6.94
2022-10-09T04:26:39.070Z,6.94
2022-10-09T04:28:41.950Z,6.95
2022-10-09T04:30:43.388Z,6.92
2022-10-09T04:32:45.015Z,6.81
2022-10-09T04:34:46.551Z,6.80
2022-10-09T04:36:47.864Z,6.74
2022-10-09T04:38:49.337Z,6.65
2022-10-09T04:40:57.013Z,6.69
2022-10-09T04:42:58.454Z,6.74
2022-10-09T04:45:01.250Z,6.76
2022-10-09T04:47:02.747Z,6.74
2022-10-09T04:49:04.031Z,6.72
2022-10-09T04:51:06.728Z,6.61
2022-10-09T04:53:08.431Z,6.52
2022-10-09T04:55:10.026Z,6.52
2022-10-09T04:57:11.539Z,6.59
2022-10-09T04:59:12.846Z,6.54
2022-10-09T05:01:17.465Z,6.54
2022-10-09T05:03:19.203Z,6.56
2022-10-09T05:05:20.674Z,6.54
2022-10-09T05:07:22.235Z,6.55
2022-10-09T05:09:23.558Z,6.51
2022-10-09T05:11:25.963Z,6.51
2022-10-09T05:13:29.844Z,6.43
2022-10-09T05:15:31.602Z,6.56
2022-10-09T05:17:34.546Z,6.52
2022-10-09T05:19:36.065Z,6.48
2022-10-09T05:21:37.571Z,6.46
2022-10-09T05:23:39.145Z,6.40
2022-10-09T05:25:40.569Z,6.46
2022-10-09T05:27:42.062Z,6.45
2022-10-09T05:29:43.330Z,6.45
2022-10-09T05:31:49.243Z,6.49
2022-10-09T05:33:53.183Z,6.47
2022-10-09T05:35:56.348Z,6.38
2022-10-09T05:37:57.796Z,6.40
2022-10-09T05:39:59.274Z,6.44
2022-10-09T05:42:00.726Z,6.46
2022-10-09T05:44:03.571Z,6.46
2022-10-09T05:46:07.574Z,6.44
2022-10-09T05:48:09.090Z,6.46
2022-10-09T05:50:14.492Z,6.48
2022-10-09T05:52:16.000Z,6.50
2022-10-09T05:54:17.800Z,6.51
2022-10-09T05:56:21.786Z,6.44
2022-10-09T05:58:23.461Z,6.52
2022-10-09T06:00:24.881Z,6.60
2022-10-09T06:02:26.383Z,6.62
2022-10-09T06:04:27.896Z,6.70
2022-10-09T06:06:32.951Z,6.75
2022-10-09T06:08:36.027Z,6.80
2022-10-09T06:10:37.503Z,6.92
2022-10-09T06:12:39.133Z,6.92
2022-10-09T06:14:40.564Z,6.97
2022-10-09T06:16:43.453Z,7.06
2022-10-09T06:18:49.104Z,7.11
2022-10-09T06:20:54.290Z,7.14
2022-10-09T06:22:57.375Z,7.10
2022-10-09T06:24:58.885Z,7.13
2022-10-09T06:27:00.191Z,7.20
2022-10-09T06:29:04.240Z,7.28
2022-10-09T06:31:07.867Z,7.45
2022-10-09T06:33:09.370Z,7.41
2022-10-09T06:35:10.801Z,7.52
2022-10-09T06:37:12.299Z,7.54
2022-10-09T06:39:15.005Z,7.67
2022-10-09T06:41:18.381Z,7.77
2022-10-09T06:43:19.839Z,7.91
2022-10-09T06:45:21.301Z,8.00
2022-10-09T06:47:22.788Z,8.07
2022-10-09T06:49:24.082Z,8.20
2022-10-09T06:51:26.530Z,8.08
2022-10-09T06:53:28.492Z,8.15
2022-10-09T06:55:31.569Z,8.37
2022-10-09T06:57:33.014Z,8.42
2022-10-09T06:59:34.461Z,8.59
2022-10-09T07:01:35.994Z,8.60
2022-10-09T07:03:39.062Z,8.65
2022-10-09T07:05:40.678Z,8.80
2022-10-09T07:07:42.420Z,8.82
2022-10-09T07:09:44.203Z,8.85
2022-10-09T07:11:47.561Z,8.86
2022-10-09T07:13:50.989Z,8.76
2022-10-09T07:15:52.475Z,8.89
2022-10-09T07:17:54.040Z,8.82
2022-10-09T07:19:55.315Z,8.84
2022-10-09T07:21:56.772Z,8.92
2022-10-09T07:23:59.254Z,8.83
2022-10-09T07:26:01.558Z,8.94
2022-10-09T07:28:04.494Z,9.01
2022-10-09T07:30:07.667Z,9.13
2022-10-09T07:32:10.657Z,9.14
2022-10-09T07:34:12.218Z,9.14
2022-10-09T07:36:13.734Z,9.17
2022-10-09T07:38:15.005Z,9.31
2022-10-09T07:40:16.532Z,9.36
2022-10-09T07:42:18.015Z,9.56
2022-10-09T07:44:20.702Z,9.49
2022-10-09T07:46:24.342Z,9.62
2022-10-09T07:48:26.520Z,9.60
2022-10-09T07:50:27.975Z,9.72
2022-10-09T07:52:29.239Z,9.83
2022-10-09T07:54:30.729Z,9.92
2022-10-09T07:56:33.000Z,10.08
2022-10-09T07:58:34.717Z,10.16
2022-10-09T08:00:37.561Z,10.07
2022-10-09T08:02:39.073Z,10.26
2022-10-09T08:04:41.294Z,10.20
2022-10-09T08:06:42.744Z,10.36
2022-10-09T08:08:44.059Z,10.22
2022-10-09T08:10:45.494Z,10.32
2022-10-09T08:12:47.257Z,10.24
2022-10-09T08:14:49.058Z,10.28
2022-10-09T08:16:51.967Z,10.37
2022-10-09T08:18:55.420Z,10.56
2022-10-09T08:20:58.071Z,10.53
2022-10-09T08:22:59.531Z,10.66
2022-10-09T08:25:00.826Z,10.80
2022-10-09T08:27:02.327Z,10.91
2022-10-09T08:29:05.952Z,11.13
2022-10-09T08:31:11.168Z,11.22
2022-10-09T08:33:14.190Z,11.52
2022-10-09T08:35:15.712Z,11.61
2022-10-09T08:37:17.198Z,11.48
2022-10-09T08:39:18.760Z,11.31
2022-10-09T08:41:37.371Z,11.35
2022-10-09T08:43:44.029Z,11.52
2022-10-09T08:45:47.533Z,11.64
2022-10-09T08:47:52.787Z,11.71
2022-10-09T08:50:01.628Z,11.92
2022-10-09T08:52:17.067Z,12.14
2022-10-09T08:54:25.079Z,12.15
2022-10-09T08:56:27.260Z,12.50
2022-10-09T08:58:31.297Z,12.61
2022-10-09T09:00:38.531Z,12.61
2022-10-09T09:03:02.232Z,12.63
2022-10-09T09:05:19.013Z,12.88
2022-10-09T09:07:28.758Z,12.93
2022-10-09T09:09:42.437Z,13.15
2022-10-09T09:11:50.665Z,13.05
2022-10-09T09:14:01.937Z,13.17
2022-10-09T09:16:10.124Z,13.19
2022-10-09T09:18:32.210Z,13.47
2022-10-09T09:20:47.271Z,13.58
2022-10-09T09:22:50.462Z,13.45
2022-10-09T09:24:53.936Z,13.43
2022-10-09T09:27:02.077Z,13.42
2022-10-09T09:29:05.190Z,13.49
2022-10-09T09:31:13.394Z,13.56
2022-10-09T09:33:21.123Z,13.57
2022-10-09T09:35:28.132Z,13.51
2022-10-09T09:37:30.994Z,13.58
2022-10-09T09:40:24.183Z,13.57
2022-10-09T09:42:01.911Z,13.57
2022-10-09T09:44:04.933Z,13.44
2022-10-09T09:46:12.765Z,13.55
2022-10-09T09:48:18.635Z,13.76
2022-10-09T09:50:47.113Z,13.57
2022-10-09T09:52:53.015Z,13.60
2022-10-09T09:54:56.763Z,13.51
2022-10-09T09:57:13.063Z,13.50
2022-10-09T09:59:29.811Z,13.68
2022-10-09T10:01:33.253Z,13.88
2022-10-09T10:03:36.005Z,13.68
2022-10-09T10:05:38.225Z,13.72
2022-10-09T10:07:39.875Z,13.76
2022-10-09T10:09:42.752Z,13.89
2022-10-09T10:11:46.288Z,13.86
2022-10-09T10:13:49.045Z,13.90
2022-10-09T10:15:53.487Z,13.91
2022-10-09T10:17:59.618Z,14.02
2022-10-09T10:20:06.254Z,14.11
2022-10-09T10:22:22.857Z,14.26
2022-10-09T10:24:27.480Z,14.32
2022-10-09T10:26:35.398Z,14.42
2022-10-09T10:28:46.332Z,14.41
2022-10-09T10:30:50.286Z,14.44
2022-10-09T10:32:58.901Z,14.51
2022-10-09T10:35:04.646Z,14.61
2022-10-09T10:37:23.631Z,14.56
2022-10-09T10:39:31.783Z,14.75
2022-10-09T10:41:40.472Z,14.75
2022-10-09T10:43:44.230Z,14.76
2022-10-09T10:45:56.441Z,14.61
2022-10-09T10:48:01.022Z,14.70
2022-10-09T10:50:02.498Z,14.89
2022-10-09T10:52:16.363Z,14.96
2022-10-09T10:54:29.782Z,14.96
2022-10-09T10:56:37.689Z,14.61
2022-10-09T10:58:44.847Z,14.64
2022-10-09T11:00:54.118Z,14.53
2022-10-09T11:03:22.200Z,14.56
2022-10-09T11:05:36.384Z,14.63
2022-10-09T11:07:46.110Z,14.74
2022-10-09T11:09:57.862Z,14.70
2022-10-09T11:12:19.609Z,14.69
2022-10-09T11:14:47.833Z,14.82
2022-10-09T11:17:00.232Z,14.86
2022-10-09T11:19:14.946Z,15.16
2022-10-09T11:21:29.632Z,15.10
2022-10-09T11:23:42.665Z,15.27
2022-10-09T11:25:54.454Z,15.07
2022-10-09T11:28:01.838Z,15.19
2022-10-09T11:30:08.976Z,15.15
2022-10-09T11:32:15.883Z,15.24
2022-10-09T11:34:22.583Z,15.10
2022-10-09T11:36:30.819Z,15.07
2022-10-09T11:38:37.103Z,15.17
2022-10-09T11:40:42.295Z,15.17
2022-10-09T11:42:48.949Z,15.30
2022-10-09T11:45:05.078Z,15.13
2022-10-09T11:47:17.390Z,15.00
2022-10-09T11:49:25.549Z,15.06
2022-10-09T11:51:34.866Z,15.06
2022-10-09T11:53:38.101Z,15.27
2022-10-09T11:55:39.584Z,15.22
2022-10-09T11:57:41.063Z,15.32
2022-10-09T11:59:45.705Z,15.39
2022-10-09T12:01:52.186Z,15.29
2022-10-09T12:04:03.146Z,15.28
2022-10-09T12:06:10.130Z,15.26
2022-10-09T12:08:20.256Z,15.31
2022-10-09T12:10:29.305Z,15.40
2022-10-09T12:12:31.409Z,15.19
2022-10-09T12:14:37.824Z,15.34
2022-10-09T12:16:42.686Z,15.41
2022-10-09T12:18:47.401Z,15.27
2022-10-09T12:20:50.647Z,15.07
2022-10-09T12:23:21.311Z,15.10
2022-10-09T12:25:27.891Z,14.89
2022-10-09T12:27:33.660Z,14.79
2022-10-09T12:29:44.703Z,15.03
2022-10-09T12:31:54.367Z,15.11
2022-10-09T12:34:00.961Z,15.21
2022-10-09T12:36:06.588Z,15.30
2022-10-09T12:38:18.700Z,15.27
2022-10-09T12:40:23.415Z,15.47
2022-10-09T12:42:28.394Z,15.45
2022-10-09T12:44:33.929Z,15.19
2022-10-09T12:46:38.302Z,15.02
2022-10-09T12:48:44.208Z,14.98
2022-10-09T12:50:47.866Z,15.17
2022-10-09T12:52:53.335Z,15.27
2022-10-09T12:54:57.614Z,15.16
2022-10-09T12:57:00.708Z,15.15
2022-10-09T12:59:05.873Z,15.25
2022-10-09T13:01:13.759Z,15.43
2022-10-09T13:03:34.685Z,15.52
2022-10-09T13:05:38.163Z,15.63
2022-10-09T13:07:44.205Z,15.51
2022-10-09T13:09:49.357Z,15.55
2022-10-09T13:11:54.994Z,15.42
2022-10-09T13:13:58.498Z,15.37
2022-10-09T13:16:02.707Z,15.43
2022-10-09T13:18:19.728Z,15.39
2022-10-09T13:20:27.692Z,15.40
2022-10-09T13:22:33.686Z,15.40
2022-10-09T13:24:48.660Z,15.37
2022-10-09T13:26:50.430Z,15.37
2022-10-09T13:28:54.063Z,15.29
2022-10-09T13:30:56.560Z,15.12
2022-10-09T13:32:59.097Z,15.11
2022-10-09T13:35:00.813Z,15.16
2022-10-09T13:37:02.536Z,15.01
2022-10-09T13:39:07.953Z,15.20
2022-10-09T13:41:13.655Z,15.20
2022-10-09T13:43:22.949Z,15.19
2022-10-09T13:45:24.606Z,15.21
2022-10-09T13:47:29.234Z,15.08
2022-10-09T13:49:37.229Z,15.01
2022-10-09T13:51:41.825Z,15.17
2022-10-09T13:53:43.674Z,15.16
2022-10-09T13:55:47.783Z,15.26
2022-10-09T13:57:59.421Z,15.37
2022-10-09T14:00:06.141Z,15.40
2022-10-09T14:02:12.897Z,15.41
2022-10-09T14:04:14.615Z,15.36
2022-10-09T14:06:25.310Z,15.16
2022-10-09T14:08:30.421Z,15.01
2022-10-09T14:10:34.009Z,14.84
2022-10-09T14:12:35.938Z,14.82
2022-10-09T14:14:40.376Z,14.77
2022-10-09T14:16:44.319Z,14.82
2022-10-09T14:18:46.225Z,14.78
2022-10-09T14:20:48.018Z,14.85
2022-10-09T14:22:52.178Z,14.91
2022-10-09T14:24:53.711Z,14.95
2022-10-09T14:26:55.269Z,15.00
2022-10-09T14:28:59.532Z,15.10
2022-10-09T14:31:06.056Z,14.93
2022-10-09T14:33:07.886Z,15.00
2022-10-09T14:35:09.859Z,15.05
2022-10-09T14:37:23.869Z,15.03
2022-10-09T14:39:32.833Z,14.97
2022-10-09T14:41:37.642Z,15.06
2022-10-09T14:43:40.118Z,15.05
2022-10-09T14:45:41.543Z,14.96
2022-10-09T14:47:44.352Z,14.83
2022-10-09T14:49:45.972Z,14.87
2022-10-09T14:51:47.637Z,14.82
2022-10-09T14:53:50.012Z,14.64
2022-10-09T14:55:51.458Z,14.78
2022-10-09T14:57:52.893Z,14.54
2022-10-09T14:59:54.349Z,14.55
2022-10-09T15:01:55.817Z,14.52
2022-10-09T15:04:00.193Z,14.45
2022-10-09T15:06:03.758Z,14.50
2022-10-09T15:08:05.228Z,14.52
2022-10-09T15:10:07.336Z,14.54
2022-10-09T15:12:08.863Z,14.54
2022-10-09T15:14:10.622Z,14.35
2022-10-09T15:16:14.913Z,14.29
2022-10-09T15:18:16.618Z,14.09
2022-10-09T15:20:19.417Z,14.05
2022-10-09T15:22:20.850Z,14.07
2022-10-09T15:24:22.489Z,14.04
2022-10-09T15:26:25.269Z,14.02
2022-10-09T15:28:27.570Z,13.91
2022-10-09T15:30:29.207Z,13.84
2022-10-09T15:32:30.653Z,13.84
2022-10-09T15:34:32.136Z,13.89
2022-10-09T15:36:37.038Z,13.84
2022-10-09T15:38:39.899Z,13.79
2022-10-09T15:40:43.053Z,13.84
2022-10-09T15:42:45.216Z,13.74
2022-10-09T15:44:46.661Z,13.73
2022-10-09T15:46:49.493Z,13.73
2022-10-09T15:48:51.537Z,13.63
2022-10-09T15:50:53.047Z,13.60
2022-10-09T15:52:55.840Z,13.62
2022-10-09T15:54:57.317Z,13.57
2022-10-09T15:56:58.759Z,13.56
2022-10-09T15:59:00.249Z,13.56
2022-10-09T16:01:09.284Z,13.49
2022-10-09T16:03:10.815Z,13.53
2022-10-09T16:05:12.298Z,13.47
2022-10-09T16:07:13.774Z,13.30
2022-10-09T16:09:16.631Z,13.33
2022-10-09T16:11:21.685Z,13.16
2022-10-09T16:13:27.040Z,13.20
2022-10-09T16:15:28.562Z,13.15
2022-10-09T16:17:30.053Z,13.04
2022-10-09T16:19:31.626Z,12.96
2022-10-09T16:21:33.431Z,12.87
2022-10-09T16:23:35.424Z,12.77
2022-10-09T16:25:39.313Z,12.74
2022-10-09T16:27:40.795Z,12.72
2022-10-09T16:29:42.403Z,12.75
2022-10-09T16:31:43.881Z,12.69
2022-10-09T16:33:45.291Z,12.61
2022-10-09T16:35:46.783Z,12.52
2022-10-09T16:37:48.375Z,12.53
2022-10-09T16:39:49.859Z,12.67
2022-10-09T16:41:52.718Z,12.73
2022-10-09T16:43:56.351Z,12.76
2022-10-09T16:46:08.546Z,12.66
2022-10-09T16:48:10.058Z,12.50
2022-10-09T16:50:11.946Z,12.33
2022-10-09T16:52:13.439Z,12.22
2022-10-09T16:54:14.889Z,12.08
2022-10-09T16:56:18.673Z,12.03
2022-10-09T16:58:21.513Z,12.03
2022-10-09T17:00:23.137Z,12.01
2022-10-09T17:02:24.675Z,11.93
2022-10-09T17:04:26.301Z,11.87
2022-10-09T17:06:30.818Z,11.84
2022-10-09T17:08:32.332Z,11.86
2022-10-09T17:10:33.803Z,11.88
2022-10-09T17:12:35.302Z,11.79
2022-10-09T17:14:38.833Z,11.69
2022-10-09T17:16:42.260Z,11.62
2022-10-09T17:18:44.062Z,11.58
2022-10-09T17:20:45.750Z,11.59
2022-10-09T17:22:47.661Z,11.53
2022-10-09T17:24:49.470Z,11.50
2022-10-09T17:26:51.003Z,11.52
2022-10-09T17:28:52.968Z,11.52
2022-10-09T17:30:55.841Z,11.55
2022-10-09T17:32:57.334Z,11.49
2022-10-09T17:34:58.837Z,11.40
2022-10-09T17:37:00.349Z,11.32
2022-10-09T17:39:02.498Z,11.43
2022-10-09T17:41:04.802Z,11.39
2022-10-09T17:43:06.622Z,11.38
2022-10-09T17:45:09.305Z,11.29
2022-10-09T17:47:12.447Z,11.25
2022-10-09T17:49:13.942Z,11.15
2022-10-09T17:51:17.320Z,10.98
2022-10-09T17:53:18.987Z,10.99
2022-10-09T17:55:20.528Z,10.95
2022-10-09T17:57:22.025Z,10.92
2022-10-09T17:59:23.483Z,10.90
2022-10-09T18:01:24.940Z,10.79
2022-10-09T18:03:27.825Z,10.85
2022-10-09T18:05:29.621Z,10.96
2022-10-09T18:07:31.096Z,10.96
2022-10-09T18:09:32.603Z,10.92
2022-10-09T18:11:34.120Z,10.82
2022-10-09T18:13:36.514Z,10.80
2022-10-09T18:15:38.762Z,10.78
2022-10-09T18:17:40.417Z,10.83
2022-10-09T18:19:43.398Z,10.90
2022-10-09T18:21:46.508Z,10.94
2022-10-09T18:23:48.261Z,10.87
2022-10-09T18:25:49.805Z,10.83
2022-10-09T18:27:51.639Z,10.82
2022-10-09T18:29:53.508Z,10.72
2022-10-09T18:31:55.002Z,10.72
2022-10-09T18:33:57.248Z,10.64
2022-10-09T18:36:03.957Z,10.63
2022-10-09T18:38:05.476Z,10.53
2022-10-09T18:40:08.172Z,10.52
2022-10-09T18:42:09.619Z,10.42
2022-10-09T18:44:12.169Z,10.29
2022-10-09T18:46:14.641Z,10.20
2022-10-09T18:48:16.904Z,10.17
2022-10-09T18:50:18.784Z,10.19
2022-10-09T18:52:21.855Z,10.11
2022-10-09T18:54:26.114Z,10.20
2022-10-09T18:56:30.678Z,10.21
2022-10-09T18:58:32.664Z,10.03
2022-10-09T19:00:34.154Z,10.10
2022-10-09T19:02:35.814Z,10.06
2022-10-09T19:04:37.567Z,10.07
2022-10-09T19:06:39.721Z,9.98
2022-10-09T19:08:42.528Z,10.00
2022-10-09T19:10:49.657Z,9.94
2022-10-09T19:12:51.101Z,9.77
2022-10-09T19:14:52.557Z,9.82
2022-10-09T19:16:54.010Z,9.78
2022-10-09T19:18:55.729Z,9.87
2022-10-09T19:20:57.229Z,9.78
2022-10-09T19:22:58.724Z,9.68
2022-10-09T19:25:01.676Z,9.70
2022-10-09T19:27:03.145Z,9.66
2022-10-09T19:29:04.755Z,9.69
2022-10-09T19:31:07.146Z,9.63
2022-10-09T19:33:08.817Z,9.59
2022-10-09T19:35:10.302Z,9.71
2022-10-09T19:37:11.752Z,9.55
2022-10-09T19:39:13.117Z,9.53
2022-10-09T19:41:15.960Z,9.64
2022-10-09T19:43:19.038Z,9.70
2022-10-09T19:45:20.487Z,9.69
2022-10-09T19:47:21.882Z,9.68
2022-10-09T19:49:23.400Z,9.66
2022-10-09T19:51:26.248Z,9.61
2022-10-09T19:53:27.702Z,9.55
2022-10-09T19:55:31.787Z,9.50
2022-10-09T19:57:34.603Z,9.42
2022-10-09T19:59:36.111Z,9.33
2022-10-09T20:01:37.781Z,9.17
2022-10-09T20:03:40.154Z,9.27
2022-10-09T20:05:41.695Z,9.23
2022-10-09T20:07:43.158Z,9.17
2022-10-09T20:09:44.454Z,9.19
2022-10-09T20:11:45.995Z,9.18
2022-10-09T20:13:53.408Z,9.11
2022-10-09T20:15:59.368Z,9.12
2022-10-09T20:18:00.887Z,9.02
2022-10-09T20:20:03.508Z,9.23
2022-10-09T20:22:04.949Z,9.09
2022-10-09T20:24:06.426Z,9.15
2022-10-09T20:26:10.747Z,9.11
2022-10-09T20:28:12.283Z,9.09
2022-10-09T20:30:15.280Z,9.06
2022-10-09T20:32:16.755Z,9.02
2022-10-09T20:34:18.055Z,9.04
2022-10-09T20:36:21.427Z,8.96
2022-10-09T20:38:25.739Z,9.04
2022-10-09T20:40:27.521Z,9.13
2022-10-09T20:42:28.856Z,9.04
2022-10-09T20:44:30.319Z,8.96
2022-10-09T20:46:34.270Z,8.94
2022-10-09T20:48:35.979Z,8.97
2022-10-09T20:50:38.400Z,8.87
2022-10-09T20:52:39.829Z,8.82
2022-10-09T20:54:41.193Z,8.85
2022-10-09T20:56:42.804Z,8.81
2022-10-09T20:58:44.243Z,8.80
2022-10-09T21:00:45.556Z,8.86
2022-10-09T21:02:48.641Z,8.74
2022-10-09T21:04:50.394Z,8.79
2022-10-09T21:06:51.709Z,8.90
2022-10-09T21:08:53.224Z,8.89
2022-10-09T21:10:54.525Z,8.94
2022-10-09T21:12:55.965Z,8.84
2022-10-09T21:14:57.248Z,8.78
2022-10-09T21:16:58.715Z,8.69
2022-10-09T21:19:02.441Z,8.68
2022-10-09T21:21:05.969Z,8.65
2022-10-09T21:23:08.233Z,8.72
2022-10-09T21:25:09.724Z,8.57
2022-10-09T21:27:11.011Z,8.65
2022-10-09T21:29:13.455Z,8.51
2022-10-09T21:31:17.522Z,8.50
2022-10-09T21:33:19.073Z,8.53
2022-10-09T21:35:22.161Z,8.56
2022-10-09T21:37:23.716Z,8.47
2022-10-09T21:39:25.216Z,8.54
2022-10-09T21:41:26.623Z,8.59
2022-10-09T21:43:28.115Z,8.55
2022-10-09T21:45:29.389Z,8.41
2022-10-09T21:47:30.877Z,8.41
2022-10-09T21:49:32.156Z,8.31
2022-10-09T21:51:34.984Z,8.21
2022-10-09T21:53:36.447Z,8.27
2022-10-09T21:55:38.099Z,8.20
2022-10-09T21:57:39.638Z,8.15
2022-10-09T21:59:41.098Z,8.18
2022-10-09T22:01:42.481Z,8.14
2022-10-09T22:03:44.067Z,8.14
2022-10-09T22:05:45.367Z,8.15
2022-10-09T22:07:48.192Z,8.22
2022-10-09T22:09:49.678Z,8.28
2022-10-09T22:11:51.074Z,8.32
2022-10-09T22:13:52.551Z,8.27
2022-10-09T22:15:53.895Z,8.09
2022-10-09T22:17:55.349Z,8.20
2022-10-09T22:19:56.830Z,8.23
2022-10-09T22:21:58.153Z,8.35
2022-10-09T22:24:01.163Z,8.32
2022-10-09T22:26:05.402Z,8.37
2022-10-09T22:28:07.215Z,8.35
2022-10-09T22:30:09.782Z,8.18
2022-10-09T22:32:11.357Z,8.38
2022-10-09T22:34:12.815Z,8.31
2022-10-09T22:36:16.045Z,8.30
2022-10-09T22:38:17.513Z,8.30
2022-10-09T22:40:20.197Z,8.24
2022-10-09T22:42:21.651Z,8.18
2022-10-09T22:44:23.112Z,8.20
2022-10-09T22:46:25.639Z,8.10
2022-10-09T22:48:27.122Z,8.18
2022-10-09T22:50:28.521Z,8.14
2022-10-09T22:52:29.942Z,8.13
2022-10-09T22:54:31.465Z,8.16
2022-10-09T22:56:35.277Z,8.09
2022-10-09T22:58:36.745Z,8.12
2022-10-09T23:00:38.338Z,8.11
2022-10-09T23:02:39.799Z,8.13
2022-10-09T23:04:41.247Z,8.14
2022-10-09T23:06:44.079Z,8.09
2022-10-09T23:08:47.336Z,8.05
2022-10-09T23:10:50.008Z,8.04
2022-10-09T23:12:53.064Z,8.06
2022-10-09T23:14:54.700Z,8.04
2022-10-09T23:16:55.988Z,8.01
2022-10-09T23:19:04.108Z,7.92
2022-10-09T23:21:09.342Z,7.93
2022-10-09T23:23:10.835Z,7.89
2022-10-09T23:25:12.105Z,7.90
2022-10-09T23:27:13.564Z,7.75
2022-10-09T23:29:18.154Z,7.72
2022-10-09T23:31:19.622Z,7.68
2022-10-09T23:33:21.117Z,7.74
2022-10-09T23:35:22.408Z,7.64
2022-10-09T23:37:23.869Z,7.68
2022-10-09T23:39:25.346Z,7.69
2022-10-09T23:41:27.822Z,7.71
2022-10-09T23:43:30.362Z,7.65
2022-10-09T23:45:33.213Z,7.61
2022-10-09T23:47:34.675Z,7.51
2022-10-09T23:49:36.899Z,7.55
2022-10-09T23:51:38.472Z,7.56
2022-10-09T23:53:40.866Z,7.56
2022-10-09T23:55:42.632Z,7.54
2022-10-09T23:57:44.083Z,7.56
2022-10-09T23:59:45.523Z,7.44
